Time;durP1;ratioP1;P1;durP2;ratioP2;P2;SDS_P1;SDS_P2;PMS_P1;PMS_P2;Temp;Humidity;BMP_temperature;BMP_pressure;BME280_temperature;BME280_humidity;BME280_pressure;Samples;Min_cycle;Max_cycle;Signal;HPM_P1;HPM_P2
2023/12/12 00:00:04;;;;;;;7.20;1.83;;;28.50;56.20;;;;;;4987581;28;20267;-71
2023/12/12 00:02:31;;;;;;;8.50;1.63;;;28.30;57.60;;;;;;4985746;28;20205;-70
2023/12/12 00:04:59;;;;;;;10.50;2.10;;;28.30;57.60;;;;;;4988771;28;20182;-71
2023/12/12 00:07:26;;;;;;;5.90;2.00;;;28.30;57.80;;;;;;4989134;28;20189;-71
2023/12/12 00:09:54;;;;;;;8.10;2.03;;;28.30;58.20;;;;;;4979083;28;20292;-72
2023/12/12 00:12:21;;;;;;;9.13;2.10;;;28.60;58.00;;;;;;4985088;28;20264;-70
2023/12/12 00:14:49;;;;;;;10.07;1.70;;;28.80;57.90;;;;;;4972622;28;20193;-68
2023/12/12 00:17:16;;;;;;;10.47;2.30;;;28.80;58.50;;;;;;4990558;28;20193;-72
2023/12/12 00:19:43;;;;;;;9.67;1.90;;;28.80;58.60;;;;;;4991181;28;20220;-69
2023/12/12 00:22:12;;;;;;;9.83;1.97;;;29.00;56.90;;;;;;4984908;28;20186;-70
2023/12/12 00:24:39;;;;;;;8.50;1.83;;;29.00;57.30;;;;;;4989374;28;20189;-71
2023/12/12 00:27:06;;;;;;;13.23;2.63;;;28.80;57.40;;;;;;4987812;28;20552;-71
2023/12/12 00:29:38;;;;;;;12.27;2.70;;;28.80;57.40;;;;;;4989820;28;20229;-71
2023/12/12 00:32:06;;;;;;;13.67;2.43;;;28.70;58.80;;;;;;4987562;28;20262;-69
2023/12/12 00:34:36;;;;;;;11.03;2.27;;;28.60;58.30;;;;;;4990284;28;20221;-72
2023/12/12 00:37:05;;;;;;;7.00;1.73;;;28.70;59.60;;;;;;4988316;28;20194;-70
2023/12/12 00:39:39;;;;;;;9.50;1.77;;;28.80;59.10;;;;;;4988226;28;20209;-67
2023/12/12 00:42:07;;;;;;;10.73;1.93;;;28.90;57.70;;;;;;4988887;28;20507;-69
2023/12/12 00:44:38;;;;;;;9.33;2.17;;;28.80;56.90;;;;;;4993889;28;20186;-69
2023/12/12 00:47:05;;;;;;;5.23;1.70;;;29.00;55.90;;;;;;4994810;28;20194;-70
2023/12/12 00:49:32;;;;;;;10.03;2.53;;;29.00;57.00;;;;;;4981394;28;20194;-70
2023/12/12 00:52:00;;;;;;;7.50;1.43;;;29.30;56.40;;;;;;4980615;28;20660;-73
2023/12/12 00:54:27;;;;;;;12.63;2.23;;;29.10;55.60;;;;;;4995572;28;20210;-71
2023/12/12 00:56:55;;;;;;;9.23;1.87;;;29.10;55.20;;;;;;4975436;28;20193;-73
2023/12/12 00:59:22;;;;;;;5.83;1.67;;;28.90;55.90;;;;;;4991877;28;20711;-70
2023/12/12 01:01:49;;;;;;;6.30;1.90;;;29.10;55.80;;;;;;4990140;28;20579;-70
2023/12/12 01:04:16;;;;;;;7.23;1.70;;;29.40;56.20;;;;;;4992933;28;20190;-69
2023/12/12 01:06:45;;;;;;;8.33;2.00;;;29.80;53.70;;;;;;4992502;28;20212;-72
2023/12/12 01:09:16;;;;;;;6.40;1.70;;;29.30;55.30;;;;;;4990500;28;20183;-70
2023/12/12 01:11:43;;;;;;;5.53;1.47;;;29.80;55.30;;;;;;4993105;28;20281;-70
2023/12/12 01:14:12;;;;;;;8.93;1.80;;;29.50;54.90;;;;;;4987520;28;20186;-70
2023/12/12 01:16:39;;;;;;;9.40;2.03;;;29.80;54.30;;;;;;4984019;28;20183;-73
2023/12/12 01:19:06;;;;;;;8.70;2.20;;;29.60;55.30;;;;;;4992091;28;20714;-71
2023/12/12 01:21:39;;;;;;;9.10;2.17;;;30.10;55.30;;;;;;4983123;28;20228;-72
2023/12/12 01:24:07;;;;;;;7.00;2.07;;;29.80;55.10;;;;;;4992609;28;20189;-74
2023/12/12 01:26:34;;;;;;;13.97;2.10;;;29.80;56.00;;;;;;4992954;28;20177;-70
2023/12/12 01:29:04;;;;;;;9.67;1.83;;;29.60;56.50;;;;;;4996030;28;20233;-71
2023/12/12 01:31:32;;;;;;;5.10;1.70;;;29.40;55.90;;;;;;4994362;28;20197;-70
2023/12/12 01:33:59;;;;;;;6.63;1.63;;;29.60;55.30;;;;;;4995985;28;20182;-72
2023/12/12 01:36:26;;;;;;;8.57;1.93;;;30.10;55.30;;;;;;4991471;28;20186;-72
2023/12/12 01:38:54;;;;;;;8.47;1.90;;;30.40;54.40;;;;;;4997228;28;20186;-71
2023/12/12 01:41:21;;;;;;;10.80;1.87;;;30.60;54.10;;;;;;4992051;28;20227;-72
2023/12/12 01:43:51;;;;;;;8.00;1.97;;;30.10;55.20;;;;;;4990065;28;20245;-71
2023/12/12 01:46:20;;;;;;;10.60;1.90;;;30.30;54.90;;;;;;4995930;28;20309;-71
2023/12/12 01:48:49;;;;;;;10.80;2.27;;;30.10;54.10;;;;;;4994791;28;20209;-72
2023/12/12 01:51:18;;;;;;;7.77;1.90;;;29.90;55.10;;;;;;4984543;28;20206;-71
2023/12/12 01:53:53;;;;;;;11.30;1.93;;;30.00;55.10;;;;;;4985727;28;20187;-74
2023/12/12 01:56:20;;;;;;;10.37;2.30;;;29.60;56.20;;;;;;4962394;28;20189;-73
2023/12/12 01:58:50;;;;;;;8.53;1.90;;;29.70;56.30;;;;;;4992136;28;20669;-70
2023/12/12 02:01:18;;;;;;;6.63;2.00;;;29.80;55.20;;;;;;4993337;28;20264;-71
2023/12/12 02:03:46;;;;;;;8.43;1.87;;;29.80;55.80;;;;;;4995025;28;20170;-68
2023/12/12 02:06:22;;;;;;;8.97;1.80;;;29.90;55.10;;;;;;4995384;28;20181;-70
2023/12/12 02:08:51;;;;;;;6.40;1.63;;;30.10;54.10;;;;;;4995186;28;20822;-70
2023/12/12 02:11:19;;;;;;;8.93;1.80;;;30.00;53.60;;;;;;4995458;28;20193;-69
2023/12/12 02:13:47;;;;;;;4.57;1.73;;;29.80;53.70;;;;;;4995017;28;20182;-69
2023/12/12 02:16:16;;;;;;;9.40;1.90;;;30.20;53.30;;;;;;4982054;28;20189;-69
2023/12/12 02:18:44;;;;;;;11.30;2.10;;;30.50;52.50;;;;;;4994040;28;20174;-72
2023/12/12 02:21:24;;;;;;;14.13;2.23;;;30.40;53.20;;;;;;4993831;28;20225;-69
2023/12/12 02:23:52;;;;;;;9.63;2.33;;;30.60;52.70;;;;;;4989982;28;20184;-70
2023/12/12 02:26:20;;;;;;;8.33;1.70;;;30.30;53.20;;;;;;4994238;28;20692;-67
2023/12/12 02:28:47;;;;;;;6.05;2.10;;;30.40;51.80;;;;;;4995043;28;20221;-68
2023/12/12 02:31:18;;;;;;;11.53;2.13;;;30.80;51.20;;;;;;4978042;28;20591;-70
2023/12/12 02:33:45;;;;;;;11.83;2.27;;;30.70;52.20;;;;;;4993782;28;20190;-69
2023/12/12 02:36:12;;;;;;;6.33;1.83;;;30.90;51.20;;;;;;4994201;28;20189;-67
2023/12/12 02:38:41;;;;;;;8.82;2.15;;;31.20;50.90;;;;;;4994970;28;20193;-70
2023/12/12 02:41:14;;;;;;;11.10;2.25;;;30.70;50.30;;;;;;4984101;28;20218;-68
2023/12/12 02:43:43;;;;;;;15.63;3.33;;;30.70;52.00;;;;;;4994792;28;20185;-68
2023/12/12 02:46:11;;;;;;;11.13;1.93;;;30.90;51.70;;;;;;4993980;28;20174;-68
2023/12/12 02:48:39;;;;;;;7.82;1.92;;;31.10;50.60;;;;;;4992968;28;20182;-68
2023/12/12 02:51:07;;;;;;;5.90;1.70;;;31.30;50.40;;;;;;4981874;28;20193;-67
2023/12/12 02:53:39;;;;;;;14.07;2.05;;;30.80;51.20;;;;;;4987754;28;20182;-72
2023/12/12 02:56:08;;;;;;;7.03;2.10;;;31.10;50.80;;;;;;4994095;28;20261;-68
2023/12/12 02:58:35;;;;;;;6.90;1.58;;;31.70;50.90;;;;;;4975258;28;20285;-70
2023/12/12 03:01:03;;;;;;;9.63;1.75;;;31.20;51.40;;;;;;4987029;28;20272;-70
2023/12/12 03:03:31;;;;;;;6.60;1.95;;;31.10;51.90;;;;;;4993825;28;20221;-72
2023/12/12 03:05:59;;;;;;;8.35;1.48;;;31.10;51.40;;;;;;4989505;28;20204;-71
2023/12/12 03:08:26;;;;;;;7.63;1.63;;;31.10;50.30;;;;;;4981731;28;20178;-70
2023/12/12 03:10:55;;;;;;;5.35;1.73;;;30.40;51.80;;;;;;4979698;28;20241;-70
2023/12/12 03:13:22;;;;;;;7.82;1.90;;;30.70;52.10;;;;;;4981917;28;20182;-70
2023/12/12 03:15:52;;;;;;;8.43;1.55;;;30.90;51.30;;;;;;4988146;28;20183;-71
2023/12/12 03:18:20;;;;;;;9.35;1.73;;;31.40;49.40;;;;;;4980807;28;20572;-72
2023/12/12 03:20:47;;;;;;;7.93;2.15;;;31.40;51.10;;;;;;4988560;28;20210;-69
2023/12/12 03:23:14;;;;;;;9.27;2.13;;;31.10;50.90;;;;;;4981882;28;20175;-68
2023/12/12 03:25:42;;;;;;;6.55;1.58;;;31.30;50.10;;;;;;4968275;28;20221;-70
2023/12/12 03:28:09;;;;;;;10.93;1.63;;;31.30;48.90;;;;;;4981111;28;20509;-70
2023/12/12 03:30:36;;;;;;;9.95;1.77;;;31.00;48.70;;;;;;4987722;28;20692;-68
2023/12/12 03:33:06;;;;;;;9.95;2.17;;;31.00;49.50;;;;;;4989704;28;20612;-70
2023/12/12 03:35:33;;;;;;;6.43;1.50;;;31.40;50.10;;;;;;4990933;28;20626;-70
2023/12/12 03:38:00;;;;;;;9.07;1.90;;;31.10;48.60;;;;;;4977554;28;20213;-68
2023/12/12 03:40:28;;;;;;;5.53;1.77;;;31.60;48.70;;;;;;4984618;28;20194;-68
2023/12/12 03:42:55;;;;;;;7.13;1.48;;;31.40;48.70;;;;;;4980250;28;20218;-69
2023/12/12 03:45:22;;;;;;;8.18;1.83;;;31.10;50.00;;;;;;4982638;28;20187;-72
2023/12/12 03:47:50;;;;;;;6.70;1.90;;;31.60;49.20;;;;;;4979893;28;20210;-71
2023/12/12 03:50:17;;;;;;;7.13;1.77;;;31.90;48.30;;;;;;4985911;28;20186;-72
2023/12/12 03:52:49;;;;;;;9.65;2.00;;;32.10;48.60;;;;;;4985983;28;20182;-69
2023/12/12 03:55:16;;;;;;;9.70;1.77;;;32.40;47.80;;;;;;4950207;28;20195;-70
2023/12/12 03:57:44;;;;;;;7.18;1.77;;;32.20;47.70;;;;;;4990543;28;20179;-70
2023/12/12 04:00:12;;;;;;;11.00;1.67;;;32.40;47.70;;;;;;4972274;28;20209;-69
2023/12/12 04:02:39;;;;;;;5.90;1.73;;;32.50;48.10;;;;;;4980487;28;20197;-70
2023/12/12 04:05:11;;;;;;;7.05;1.88;;;32.00;47.60;;;;;;4990402;28;20718;-70
2023/12/12 04:07:39;;;;;;;8.10;1.55;;;31.80;48.10;;;;;;4983056;28;20221;-69
2023/12/12 04:10:08;;;;;;;7.43;1.65;;;31.20;50.20;;;;;;4979767;28;20178;-68
2023/12/12 04:12:38;;;;;;;8.05;1.95;;;31.50;50.00;;;;;;4971371;28;21096;-68
2023/12/12 04:15:06;;;;;;;9.60;1.83;;;31.20;49.20;;;;;;4970471;28;20193;-66
2023/12/12 04:17:34;;;;;;;7.35;1.63;;;31.30;51.40;;;;;;4986152;28;20170;-71
2023/12/12 04:20:01;;;;;;;7.68;1.75;;;31.30;50.50;;;;;;4969140;28;20605;-70
2023/12/12 04:22:28;;;;;;;5.72;1.40;;;31.10;51.20;;;;;;4984163;28;20648;-70
2023/12/12 04:24:56;;;;;;;9.00;1.88;;;30.30;49.80;;;;;;4985741;28;20177;-71
2023/12/12 04:27:23;;;;;;;8.10;1.70;;;29.90;52.00;;;;;;4991065;28;20188;-69
2023/12/12 04:29:50;;;;;;;7.20;1.65;;;29.70;53.20;;;;;;4985525;28;20222;-71
2023/12/12 04:32:17;;;;;;;4.40;1.20;;;29.90;51.10;;;;;;4983995;28;20280;-69
2023/12/12 04:34:45;;;;;;;9.32;1.88;;;29.90;53.30;;;;;;4986481;28;20178;-71
2023/12/12 04:37:14;;;;;;;8.88;1.98;;;30.00;53.40;;;;;;4986293;28;20559;-70
2023/12/12 04:39:45;;;;;;;4.73;1.60;;;30.00;53.70;;;;;;4989379;28;20190;-67
2023/12/12 04:42:15;;;;;;;6.97;1.50;;;29.60;54.40;;;;;;4985280;28;20200;-69
2023/12/12 04:44:44;;;;;;;6.53;2.00;;;28.90;54.30;;;;;;4988743;28;20190;-72
2023/12/12 04:47:13;;;;;;;5.43;1.40;;;29.00;54.70;;;;;;4983723;28;20208;-69
2023/12/12 04:49:40;;;;;;;5.57;1.50;;;29.60;54.20;;;;;;4983879;28;20190;-71
2023/12/12 04:52:08;;;;;;;7.70;2.33;;;30.30;52.20;;;;;;4992340;28;20198;-72
2023/12/12 04:54:35;;;;;;;6.55;1.50;;;30.30;53.20;;;;;;4988074;28;20192;-71
2023/12/12 04:57:02;;;;;;;8.15;2.25;;;30.80;51.70;;;;;;4985517;28;20171;-71
2023/12/12 04:59:32;;;;;;;8.30;1.58;;;31.30;52.60;;;;;;4985828;28;20187;-69
2023/12/12 05:02:02;;;;;;;9.43;2.58;;;31.40;52.00;;;;;;4984319;28;20691;-71
2023/12/12 05:04:35;;;;;;;6.18;1.75;;;31.80;50.90;;;;;;4983893;28;20198;-70
2023/12/12 05:07:04;;;;;;;6.45;1.63;;;31.60;51.30;;;;;;4979071;28;20193;-71
2023/12/12 05:09:31;;;;;;;7.25;1.80;;;31.00;51.80;;;;;;4977665;28;20291;-73
2023/12/12 05:12:02;;;;;;;10.00;2.22;;;30.90;53.20;;;;;;4980204;28;20234;-71
2023/12/12 05:14:29;;;;;;;9.77;1.77;;;31.00;54.40;;;;;;4987710;28;20190;-71
2023/12/12 05:16:56;;;;;;;9.10;1.73;;;31.00;54.60;;;;;;4988315;28;20544;-71
2023/12/12 05:19:23;;;;;;;13.77;2.08;;;30.30;56.20;;;;;;4980021;28;20293;-68
2023/12/12 05:21:51;;;;;;;11.55;1.80;;;30.30;56.30;;;;;;4961994;28;20230;-68
2023/12/12 05:24:20;;;;;;;10.70;2.22;;;30.10;57.60;;;;;;4981801;28;20561;-70
2023/12/12 05:26:47;;;;;;;11.68;2.05;;;29.60;58.60;;;;;;4990248;28;20178;-71
2023/12/12 05:29:15;;;;;;;8.20;2.10;;;29.40;58.90;;;;;;4992675;28;20249;-70
2023/12/12 05:31:43;;;;;;;8.25;1.85;;;29.10;59.40;;;;;;4990125;28;20720;-68
2023/12/12 05:34:10;;;;;;;5.40;1.23;;;29.60;58.70;;;;;;4990315;28;20187;-72
2023/12/12 05:36:38;;;;;;;10.35;1.70;;;29.90;55.90;;;;;;4987728;28;20181;-72
2023/12/12 05:39:11;;;;;;;8.52;2.03;;;30.80;54.80;;;;;;4991688;28;20218;-72
2023/12/12 05:41:39;;;;;;;9.13;2.13;;;30.80;54.00;;;;;;4987017;28;20738;-71
2023/12/12 05:44:07;;;;;;;9.95;1.77;;;31.60;52.60;;;;;;4994270;28;20186;-72
2023/12/12 05:46:35;;;;;;;9.88;1.80;;;31.60;52.30;;;;;;4982427;28;20190;-68
2023/12/12 05:49:02;;;;;;;5.80;1.85;;;31.80;51.90;;;;;;4992849;28;20650;-68
2023/12/12 05:51:34;;;;;;;7.50;1.63;;;31.10;54.10;;;;;;4990421;28;20657;-67
2023/12/12 05:54:17;;;;;;;10.82;2.28;;;31.10;53.70;;;;;;4995157;28;20185;-68
2023/12/12 05:56:45;;;;;;;8.32;1.70;;;31.80;52.10;;;;;;4993425;28;20178;-68
2023/12/12 05:59:15;;;;;;;6.68;1.73;;;31.70;52.70;;;;;;4967334;28;20555;-67
2023/12/12 06:01:43;;;;;;;7.38;1.52;;;30.80;55.10;;;;;;4985783;28;20304;-69
2023/12/12 06:04:14;;;;;;;7.15;1.88;;;31.20;53.20;;;;;;4981408;28;20724;-67
2023/12/12 06:06:42;;;;;;;5.70;2.03;;;30.70;55.60;;;;;;4993747;28;20273;-67
2023/12/12 06:09:13;;;;;;;6.97;1.77;;;31.50;53.10;;;;;;4991831;28;20193;-69
2023/12/12 06:11:41;;;;;;;6.15;1.88;;;30.90;54.60;;;;;;4988788;28;20223;-69
2023/12/12 06:14:09;;;;;;;8.85;1.83;;;30.60;56.50;;;;;;4982576;28;20269;-67
2023/12/12 06:16:38;;;;;;;8.07;1.83;;;31.30;54.30;;;;;;4978831;28;20191;-70
2023/12/12 06:19:05;;;;;;;7.00;1.70;;;31.50;54.10;;;;;;4982893;28;20197;-69
2023/12/12 06:21:34;;;;;;;7.78;1.85;;;31.50;53.40;;;;;;4992944;28;20232;-67
2023/12/12 06:24:05;;;;;;;6.75;1.63;;;31.10;55.00;;;;;;4991511;28;20178;-68
2023/12/12 06:26:43;;;;;;;7.15;1.90;;;31.20;55.00;;;;;;4982437;28;20213;-71
2023/12/12 06:29:11;;;;;;;10.88;2.20;;;30.80;56.50;;;;;;4987931;28;20222;-68
2023/12/12 06:31:38;;;;;;;10.50;2.28;;;30.70;57.00;;;;;;4991724;28;20193;-72
2023/12/12 06:34:08;;;;;;;13.35;1.80;;;31.20;56.80;;;;;;4985796;28;20182;-70
2023/12/12 06:36:36;;;;;;;8.18;2.08;;;30.70;56.90;;;;;;4992995;28;20181;-73
2023/12/12 06:39:03;;;;;;;7.63;1.77;;;31.20;55.90;;;;;;4983618;28;20671;-73
2023/12/12 06:41:31;;;;;;;6.68;1.67;;;31.20;55.30;;;;;;4979929;28;20245;-71
2023/12/12 06:44:00;;;;;;;11.75;2.47;;;30.70;57.10;;;;;;4990564;28;20213;-72
2023/12/12 06:46:27;;;;;;;9.13;2.15;;;30.30;58.80;;;;;;4988645;28;20187;-71
2023/12/12 06:48:54;;;;;;;6.95;2.00;;;30.70;57.40;;;;;;4984652;28;20255;-71
2023/12/12 06:51:22;;;;;;;11.40;2.03;;;30.80;58.90;;;;;;4986122;28;20192;-70
2023/12/12 06:53:52;;;;;;;9.13;2.55;;;31.30;55.10;;;;;;4987772;28;20262;-71
2023/12/12 06:56:21;;;;;;;6.80;1.60;;;31.00;55.80;;;;;;4991504;28;20240;-69
2023/12/12 06:58:49;;;;;;;6.45;1.60;;;30.70;56.30;;;;;;4969545;28;20198;-69
2023/12/12 07:01:16;;;;;;;11.65;2.20;;;30.40;56.70;;;;;;4980382;28;20617;-70
2023/12/12 07:03:46;;;;;;;8.27;2.22;;;30.50;56.50;;;;;;4989631;28;20190;-70
2023/12/12 07:06:15;;;;;;;11.00;2.13;;;30.30;56.90;;;;;;4984375;28;20200;-71
2023/12/12 07:08:43;;;;;;;6.45;1.90;;;30.40;56.00;;;;;;4986935;28;20194;-70
2023/12/12 07:11:11;;;;;;;8.20;1.98;;;30.80;55.80;;;;;;4980232;28;20651;-69
2023/12/12 07:13:41;;;;;;;9.23;2.10;;;30.30;56.60;;;;;;4986377;28;20284;-74
2023/12/12 07:16:12;;;;;;;9.03;2.00;;;29.60;59.40;;;;;;4967580;28;20784;-71
2023/12/12 07:18:40;;;;;;;7.35;1.70;;;29.30;60.10;;;;;;4977041;28;20178;-73
2023/12/12 07:21:07;;;;;;;9.90;2.23;;;28.50;63.10;;;;;;4977371;28;20218;-70
2023/12/12 07:23:41;;;;;;;7.70;2.47;;;28.00;64.40;;;;;;4987845;28;20193;-70
2023/12/12 07:26:12;;;;;;;5.73;1.57;;;27.60;65.60;;;;;;4986069;28;20194;-72
2023/12/12 07:28:43;;;;;;;14.13;2.77;;;27.20;66.70;;;;;;4980535;28;20246;-72
2023/12/12 07:31:14;;;;;;;11.67;2.30;;;26.90;68.20;;;;;;4980537;28;20664;-73
2023/12/12 07:33:42;;;;;;;7.40;1.97;;;26.60;69.10;;;;;;4983985;28;20635;-71
2023/12/12 07:36:09;;;;;;;13.27;2.40;;;26.80;69.70;;;;;;4969106;28;20217;-72
2023/12/12 07:38:40;;;;;;;9.50;1.90;;;26.80;69.70;;;;;;4980514;28;20240;-70
2023/12/12 07:41:07;;;;;;;6.17;1.90;;;26.80;69.90;;;;;;4979195;28;20220;-68
2023/12/12 07:43:36;;;;;;;9.13;2.13;;;26.60;70.80;;;;;;4991178;28;20193;-68
2023/12/12 07:46:06;;;;;;;8.87;1.73;;;26.40;70.60;;;;;;4980467;28;20591;-68
2023/12/12 07:48:33;;;;;;;11.60;2.17;;;26.10;71.30;;;;;;4990264;28;20188;-70
2023/12/12 07:51:04;;;;;;;9.77;2.50;;;26.00;71.20;;;;;;4981656;28;20735;-72
2023/12/12 07:53:34;;;;;;;9.60;2.03;;;26.00;71.90;;;;;;4967260;28;20660;-72
2023/12/12 07:56:08;;;;;;;7.17;2.00;;;25.90;72.40;;;;;;4981852;28;20645;-72
2023/12/12 07:58:38;;;;;;;9.10;2.30;;;25.90;72.00;;;;;;4987891;28;20651;-71
2023/12/12 08:01:06;;;;;;;8.80;2.30;;;25.80;72.40;;;;;;4988945;28;20213;-67
2023/12/12 08:03:34;;;;;;;7.83;2.13;;;25.80;72.40;;;;;;4973387;28;20177;-72
2023/12/12 08:06:04;;;;;;;7.33;2.07;;;25.50;72.70;;;;;;4988520;28;20586;-69
2023/12/12 08:08:32;;;;;;;8.20;2.00;;;25.30;73.40;;;;;;4990866;28;20181;-67
2023/12/12 08:11:02;;;;;;;9.30;2.03;;;25.40;73.40;;;;;;4990404;28;20236;-70
2023/12/12 08:13:30;;;;;;;6.73;1.70;;;25.30;72.80;;;;;;4986301;28;20708;-68
2023/12/12 08:16:03;;;;;;;10.10;1.80;;;25.30;73.30;;;;;;4985829;28;20186;-66
2023/12/12 08:18:32;;;;;;;5.90;1.97;;;25.30;73.20;;;;;;4991565;28;20224;-66
2023/12/12 08:21:01;;;;;;;9.20;2.10;;;25.20;72.40;;;;;;4988279;28;20228;-68
2023/12/12 08:23:30;;;;;;;11.30;2.00;;;25.20;72.80;;;;;;4978189;28;20183;-72
2023/12/12 08:25:59;;;;;;;11.73;2.03;;;25.10;72.80;;;;;;4968374;28;20191;-68
2023/12/12 08:28:26;;;;;;;10.30;2.30;;;25.00;73.40;;;;;;4981717;28;20185;-70
2023/12/12 08:30:55;;;;;;;5.93;1.60;;;24.90;73.80;;;;;;4991173;28;20209;-70
2023/12/12 08:33:23;;;;;;;10.00;2.07;;;24.80;74.20;;;;;;4988393;28;20186;-71
2023/12/12 08:35:51;;;;;;;8.17;1.70;;;24.80;74.30;;;;;;4992480;28;20185;-70
2023/12/12 08:38:18;;;;;;;9.37;1.83;;;24.80;74.90;;;;;;4988453;28;20181;-70
2023/12/12 08:40:46;;;;;;;8.80;1.93;;;24.80;75.20;;;;;;4974572;28;20229;-69
2023/12/12 08:43:13;;;;;;;14.27;2.90;;;24.70;75.00;;;;;;4981229;28;20193;-69
2023/12/12 08:45:40;;;;;;;10.33;2.30;;;24.70;75.60;;;;;;4990567;28;20185;-68
2023/12/12 08:48:10;;;;;;;8.87;2.13;;;24.70;75.90;;;;;;4991220;28;20174;-71
2023/12/12 08:50:37;;;;;;;7.10;1.90;;;24.70;76.00;;;;;;4978672;28;20214;-69
2023/12/12 08:53:04;;;;;;;15.20;2.93;;;24.60;76.20;;;;;;4991436;28;20190;-67
2023/12/12 08:55:31;;;;;;;9.13;2.23;;;24.70;76.40;;;;;;4982988;28;20210;-70
2023/12/12 08:57:59;;;;;;;10.00;2.10;;;24.60;76.80;;;;;;4993135;28;20271;-71
2023/12/12 09:00:26;;;;;;;7.90;1.93;;;24.70;76.70;;;;;;4991352;28;20214;-67
2023/12/12 09:02:53;;;;;;;10.33;2.57;;;24.60;76.70;;;;;;4985287;28;20182;-68
2023/12/12 09:05:25;;;;;;;7.20;1.87;;;24.60;76.80;;;;;;4987915;28;20181;-67
2023/12/12 09:07:54;;;;;;;10.00;2.10;;;24.50;76.90;;;;;;4994557;28;20186;-70
2023/12/12 09:10:21;;;;;;;10.80;1.70;;;24.50;76.70;;;;;;4986050;28;20193;-68
2023/12/12 09:12:48;;;;;;;8.47;1.87;;;24.50;77.10;;;;;;4991712;28;20641;-68
2023/12/12 09:15:18;;;;;;;8.20;1.83;;;24.50;77.30;;;;;;4994724;28;20189;-68
2023/12/12 09:17:45;;;;;;;6.53;1.73;;;24.50;77.40;;;;;;4985885;28;20657;-68
2023/12/12 09:20:13;;;;;;;10.60;2.27;;;24.40;77.50;;;;;;4979238;28;20795;-67
2023/12/12 09:22:40;;;;;;;11.83;2.63;;;24.30;77.30;;;;;;4996285;28;20312;-69
2023/12/12 09:25:07;;;;;;;8.40;2.17;;;24.30;77.30;;;;;;4996390;28;20702;-68
2023/12/12 09:27:39;;;;;;;9.63;1.77;;;24.30;77.50;;;;;;4995675;28;20239;-70
2023/12/12 09:30:08;;;;;;;10.00;1.90;;;24.20;77.50;;;;;;4992608;28;20230;-72
2023/12/12 09:32:36;;;;;;;7.60;1.97;;;24.20;77.40;;;;;;4988828;28;20656;-71
2023/12/12 09:35:09;;;;;;;10.30;2.17;;;24.20;77.70;;;;;;4992440;28;20201;-71
2023/12/12 09:37:38;;;;;;;10.30;2.00;;;24.20;77.80;;;;;;4995040;28;20560;-71
2023/12/12 09:40:05;;;;;;;10.37;2.30;;;24.20;77.70;;;;;;4996067;28;20178;-68
2023/12/12 09:42:34;;;;;;;7.57;2.23;;;24.20;78.00;;;;;;4995317;28;20199;-69
2023/12/12 09:45:04;;;;;;;10.90;2.70;;;24.20;77.90;;;;;;4995720;28;20711;-66
2023/12/12 09:47:34;;;;;;;9.43;2.17;;;24.10;78.20;;;;;;4995583;28;20685;-70
2023/12/12 09:50:03;;;;;;;7.83;1.90;;;24.10;78.40;;;;;;4987055;28;20573;-70
2023/12/12 09:52:36;;;;;;;10.83;2.10;;;24.10;78.20;;;;;;4992251;28;20194;-69
2023/12/12 09:55:05;;;;;;;7.43;1.70;;;24.10;78.10;;;;;;4994923;28;20190;-71
2023/12/12 09:57:34;;;;;;;8.60;2.03;;;24.00;78.30;;;;;;4995004;28;20624;-70
2023/12/12 10:00:04;;;;;;;5.37;1.90;;;24.00;78.60;;;;;;4993374;28;20404;-70
2023/12/12 10:02:38;;;;;;;10.37;2.47;;;23.90;78.80;;;;;;4966757;28;20572;-72
2023/12/12 10:05:09;;;;;;;10.13;2.00;;;23.90;79.00;;;;;;4989481;28;20216;-69
2023/12/12 10:07:37;;;;;;;9.57;2.23;;;23.90;79.20;;;;;;4993737;28;20182;-66
2023/12/12 10:10:10;;;;;;;10.53;2.43;;;24.00;79.30;;;;;;4995240;28;20186;-71
2023/12/12 10:12:37;;;;;;;9.50;2.00;;;24.00;79.10;;;;;;4993936;28;20182;-69
2023/12/12 10:15:20;;;;;;;6.83;1.77;;;24.00;79.20;;;;;;4994048;28;20216;-70
2023/12/12 10:17:48;;;;;;;9.30;1.80;;;24.00;79.30;;;;;;4994856;28;20201;-70
2023/12/12 10:20:25;;;;;;;13.60;2.10;;;23.90;79.30;;;;;;4976162;28;20208;-70
2023/12/12 10:22:57;;;;;;;11.07;1.93;;;23.90;79.60;;;;;;4993174;28;20276;-70
2023/12/12 10:25:31;;;;;;;8.80;2.30;;;23.90;79.60;;;;;;4975855;28;20190;-67
2023/12/12 10:28:02;;;;;;;7.17;1.87;;;23.90;79.70;;;;;;4992906;28;20671;-69
2023/12/12 10:30:29;;;;;;;10.70;1.97;;;23.80;80.30;;;;;;5003300;28;20252;-66
2023/12/12 10:33:00;;;;;;;7.87;2.20;;;23.80;80.30;;;;;;4990154;28;20186;-69
2023/12/12 10:35:30;;;;;;;8.07;1.97;;;23.80;80.40;;;;;;4981647;28;20277;-68
2023/12/12 10:38:06;;;;;;;10.10;2.10;;;23.80;80.60;;;;;;4975984;28;20248;-69
2023/12/12 10:40:35;;;;;;;6.40;1.97;;;23.80;80.60;;;;;;4986533;28;20213;-67
2023/12/12 10:43:05;;;;;;;11.30;1.80;;;23.70;80.90;;;;;;4988453;28;20225;-67
2023/12/12 10:45:33;;;;;;;9.10;2.07;;;23.70;81.20;;;;;;4989663;28;20617;-66
2023/12/12 10:48:05;;;;;;;9.13;2.00;;;23.70;81.20;;;;;;4987056;28;20193;-69
2023/12/12 10:50:36;;;;;;;11.13;2.03;;;23.70;81.00;;;;;;4989397;28;20217;-69
2023/12/12 10:53:04;;;;;;;8.13;1.80;;;23.60;80.90;;;;;;4975787;28;20197;-67
2023/12/12 10:55:34;;;;;;;9.70;2.40;;;23.60;81.10;;;;;;4987891;28;20209;-67
2023/12/12 10:58:03;;;;;;;7.33;2.00;;;23.60;81.10;;;;;;4991957;28;20579;-66
2023/12/12 11:00:31;;;;;;;7.83;1.77;;;23.50;81.30;;;;;;4993851;28;20231;-68
2023/12/12 11:03:03;;;;;;;9.00;2.03;;;23.50;81.40;;;;;;4987586;28;20185;-70
2023/12/12 11:05:31;;;;;;;11.03;2.13;;;23.50;81.50;;;;;;4993067;28;20190;-71
2023/12/12 11:07:59;;;;;;;11.70;2.20;;;23.50;81.40;;;;;;4990082;28;20201;-70
2023/12/12 11:10:27;;;;;;;8.90;2.10;;;23.50;81.40;;;;;;4988657;28;20198;-72
2023/12/12 11:12:58;;;;;;;12.37;2.20;;;23.50;81.30;;;;;;4973843;28;20563;-70
2023/12/12 11:15:27;;;;;;;13.10;2.10;;;23.50;81.50;;;;;;4997382;28;20637;-73
2023/12/12 11:17:55;;;;;;;9.63;1.80;;;23.50;81.50;;;;;;4995288;28;20252;-72
2023/12/12 11:20:22;;;;;;;11.57;2.00;;;23.50;81.50;;;;;;4990326;28;20249;-70
2023/12/12 11:22:52;;;;;;;7.87;2.17;;;23.60;81.40;;;;;;4983157;28;20206;-68
2023/12/12 11:25:20;;;;;;;9.30;2.43;;;23.50;81.50;;;;;;4991898;28;20629;-71
2023/12/12 11:27:53;;;;;;;7.53;1.73;;;23.40;81.30;;;;;;4988213;28;20222;-70
2023/12/12 11:30:40;;;;;;;12.77;2.03;;;23.40;81.40;;;;;;4974849;28;20224;-70
2023/12/12 11:33:08;;;;;;;8.83;2.17;;;23.40;81.50;;;;;;4990803;28;20181;-70
2023/12/12 11:35:36;;;;;;;9.97;2.20;;;23.30;81.70;;;;;;4982728;28;20256;-71
2023/12/12 11:38:06;;;;;;;13.13;2.03;;;23.30;81.80;;;;;;4961048;28;20186;-71
2023/12/12 11:40:34;;;;;;;9.70;2.07;;;23.30;81.90;;;;;;4987213;28;20553;-70
2023/12/12 11:43:25;;;;;;;6.87;1.77;;;23.30;81.90;;;;;;4986405;28;20184;-71
2023/12/12 11:45:54;;;;;;;9.67;1.73;;;23.40;82.00;;;;;;4982326;28;20181;-72
2023/12/12 11:48:27;;;;;;;8.53;2.17;;;23.30;82.10;;;;;;4991275;28;20243;-70
2023/12/12 11:50:56;;;;;;;8.13;2.47;;;23.30;82.20;;;;;;4991929;28;20178;-72
2023/12/12 11:53:45;;;;;;;7.23;1.93;;;23.30;82.10;;;;;;4990737;28;20606;-71
2023/12/12 11:56:16;;;;;;;11.23;2.10;;;23.30;82.20;;;;;;4989271;28;20182;-68
2023/12/12 11:58:43;;;;;;;10.50;2.40;;;23.30;82.20;;;;;;4986896;28;20664;-70
2023/12/12 12:01:19;;;;;;;8.40;2.27;;;23.30;82.30;;;;;;4973028;28;20249;-70
2023/12/12 12:03:47;;;;;;;9.90;1.90;;;23.30;82.60;;;;;;4984592;28;20182;-69
2023/12/12 12:06:14;;;;;;;11.40;2.03;;;23.30;82.30;;;;;;4987921;28;20329;-70
2023/12/12 12:08:42;;;;;;;7.03;1.93;;;23.20;82.40;;;;;;4990124;28;20264;-70
2023/12/12 12:11:11;;;;;;;12.97;2.70;;;23.20;82.40;;;;;;4989846;28;20226;-70
2023/12/12 12:13:42;;;;;;;9.23;2.47;;;23.20;82.40;;;;;;4991180;28;20189;-69
2023/12/12 12:16:10;;;;;;;6.53;1.80;;;23.20;82.40;;;;;;4980406;28;20187;-71
2023/12/12 12:18:38;;;;;;;7.37;2.00;;;23.20;82.60;;;;;;4991329;28;20296;-69
2023/12/12 12:21:09;;;;;;;9.80;2.23;;;23.10;82.50;;;;;;4990290;28;20198;-71
2023/12/12 12:23:41;;;;;;;11.77;2.70;;;23.10;82.70;;;;;;4988735;28;20182;-70
2023/12/12 12:26:08;;;;;;;9.87;1.87;;;23.10;82.90;;;;;;4987263;28;20202;-70
2023/12/12 12:28:37;;;;;;;8.13;2.10;;;23.10;82.80;;;;;;4985678;28;20224;-72
2023/12/12 12:31:05;;;;;;;9.77;2.50;;;23.00;82.80;;;;;;4987658;28;20208;-70
2023/12/12 12:33:34;;;;;;;10.50;2.13;;;23.10;82.90;;;;;;4989610;28;20189;-70
2023/12/12 12:36:01;;;;;;;9.03;2.30;;;23.10;82.90;;;;;;4989978;28;20205;-72
2023/12/12 12:38:33;;;;;;;14.63;2.10;;;23.10;82.90;;;;;;4991902;28;20209;-69
2023/12/12 12:41:01;;;;;;;7.83;1.70;;;23.00;82.90;;;;;;4991107;28;20218;-71
2023/12/12 12:43:28;;;;;;;8.97;2.00;;;23.10;83.00;;;;;;4992023;28;20211;-72
2023/12/12 12:45:58;;;;;;;12.37;1.93;;;23.00;83.10;;;;;;4994352;28;20186;-70
2023/12/12 12:48:26;;;;;;;14.67;2.67;;;23.00;83.40;;;;;;4993758;28;20190;-72
2023/12/12 12:50:55;;;;;;;9.30;2.23;;;23.00;83.30;;;;;;4994851;28;20185;-72